Time;durP1;ratioP1;P1;durP2;ratioP2;P2;SDS_P1;SDS_P2;PMS_P1;PMS_P2;Temp;Humidity;BMP_temperature;BMP_pressure;BME280_temperature;BME280_humidity;BME280_pressure;Samples;Min_cycle;Max_cycle;Signal;HPM_P1;HPM_P2
2022/01/17 00:01:36;;;;;;;48.50;30.37;;;;;;;5.21;100.00;103117.59;5094094;28;20039;-37
2022/01/17 00:04:02;;;;;;;49.20;30.02;;;;;;;5.21;100.00;103123.81;5093785;28;20027;-37
2022/01/17 00:06:27;;;;;;;48.90;27.38;;;;;;;5.18;100.00;103125.94;5093979;28;20460;-37
2022/01/17 00:08:53;;;;;;;42.53;27.77;;;;;;;5.14;100.00;103114.63;5094530;28;20024;-37
2022/01/17 00:11:19;;;;;;;43.93;27.07;;;;;;;5.24;100.00;103136.94;5094124;28;20036;-37
2022/01/17 00:13:47;;;;;;;46.83;27.90;;;;;;;5.23;100.00;103140.63;5094194;28;20038;-37
2022/01/17 00:21:11;;;;;;;45.50;25.05;;;;;;;5.19;100.00;103133.84;5093929;28;20052;-37
2022/01/17 00:23:37;;;;;;;37.33;24.00;;;;;;;5.27;100.00;103146.53;5093800;28;20047;-37
2022/01/17 00:26:04;;;;;;;46.90;24.60;;;;;;;5.27;100.00;103135.81;5093766;28;20081;-37
2022/01/17 00:28:29;;;;;;;37.70;24.90;;;;;;;5.24;100.00;103136.94;5094089;28;20345;-37
2022/01/17 00:30:55;;;;;;;40.97;24.13;;;;;;;5.25;100.00;103127.91;5093876;28;20062;-37
2022/01/17 00:33:20;;;;;;;38.53;24.30;;;;;;;5.11;100.00;103096.97;5093595;28;20028;-37
2022/01/17 00:35:46;;;;;;;42.30;25.90;;;;;;;5.26;100.00;103128.75;5093609;28;20024;-37
2022/01/17 00:38:12;;;;;;;39.90;24.50;;;;;;;5.11;100.00;103096.13;5094009;28;20273;-36
2022/01/17 00:40:37;;;;;;;;;;;;;;;5.30;100.00;103127.50;5094137;28;20464;-37
2022/01/17 00:43:03;;;;;;;38.78;24.23;;;;;;;5.25;100.00;103133.28;5093660;28;19949;-37
2022/01/17 00:45:29;;;;;;;42.50;24.17;;;;;;;5.24;100.00;103131.59;5093636;28;20036;-37
2022/01/17 00:47:56;;;;;;;41.53;24.13;;;;;;;5.24;100.00;103131.59;5093279;28;20269;-37
2022/01/17 00:50:23;;;;;;;37.22;23.15;;;;;;;5.17;100.00;103117.00;5093345;28;20101;-36
2022/01/17 00:52:49;;;;;;;42.55;24.25;;;;;;;5.23;100.00;103134.41;5093291;28;20032;-37
2022/01/17 00:55:14;;;;;;;39.83;22.70;;;;;;;5.26;100.00;103134.13;5093217;28;20510;-37
2022/01/17 00:57:40;;;;;;;38.03;21.93;;;;;;;5.27;100.00;103141.16;5093460;28;20038;-37
2022/01/17 01:00:07;;;;;;;36.25;23.10;;;;;;;5.24;100.00;103142.31;5093067;28;20597;-37
2022/01/17 01:02:33;;;;;;;36.45;20.88;;;;;;;5.18;100.00;103134.84;5093117;28;20028;-37
2022/01/17 01:04:58;;;;;;;40.67;21.88;;;;;;;5.26;100.00;103151.06;5092946;28;20024;-37
2022/01/17 01:07:23;;;;;;;37.63;19.13;;;;;;;5.27;100.00;103150.09;5093181;28;20522;-37
2022/01/17 01:10:00;;;;;;;30.97;20.13;;;;;;;5.18;100.00;103142.88;5093378;28;20016;-37
2022/01/17 01:12:26;;;;;;;36.80;19.33;;;;;;;5.24;100.00;103160.25;5093121;28;20052;-37
2022/01/17 01:14:51;;;;;;;30.03;18.67;;;;;;;5.20;100.00;103154.31;5093693;28;20035;-37
2022/01/17 01:17:47;;;;;;;34.43;19.10;;;;;;;5.21;100.00;103137.22;5097088;28;20067;-37
2022/01/17 01:20:19;;;;;;;33.75;18.17;;;;;;;5.28;100.00;103153.63;5096391;28;20032;-37
2022/01/17 01:28:13;;;;;;;28.30;16.48;;;;;;;5.28;100.00;103150.94;5097925;28;20039;-37
2022/01/17 01:30:43;;;;;;;33.95;17.27;;;;;;;5.30;100.00;103148.94;5097354;28;20376;-37
2022/01/17 01:33:09;;;;;;;33.88;18.02;;;;;;;5.25;100.00;103138.63;5097548;28;20103;-37
2022/01/17 01:35:43;;;;;;;31.25;16.42;;;;;;;5.31;100.00;103135.38;5096689;28;20573;-37
2022/01/17 01:38:08;;;;;;;27.88;16.42;;;;;;;5.29;100.00;103150.78;5097595;28;20024;-37
2022/01/17 01:40:34;;;;;;;25.07;17.30;;;;;;;5.33;100.00;103151.38;5097522;28;20024;-37
2022/01/17 01:43:00;;;;;;;34.97;18.27;;;;;;;5.27;100.00;103150.09;5097025;28;20052;-37
2022/01/17 01:45:27;;;;;;;29.00;16.83;;;;;;;5.33;100.00;103171.00;5096801;28;20090;-36
2022/01/17 01:47:52;;;;;;;33.80;18.52;;;;;;;5.22;100.00;103160.41;5096664;28;20078;-37
2022/01/17 01:50:19;;;;;;;34.23;18.13;;;;;;;5.27;100.00;103170.69;5097774;28;20432;-37
2022/01/17 01:52:44;;;;;;;33.05;17.88;;;;;;;5.20;100.00;103162.34;5096841;28;20027;-37
2022/01/17 01:55:12;;;;;;;32.08;17.40;;;;;;;5.21;100.00;103152.47;5096861;28;20077;-37
2022/01/17 01:57:39;;;;;;;34.67;18.20;;;;;;;5.16;100.00;103156.41;5096531;28;20040;-36
2022/01/17 02:00:06;;;;;;;30.52;16.73;;;;;;;5.11;100.00;103160.50;5096664;28;20119;-37
2022/01/17 02:02:32;;;;;;;32.80;17.17;;;;;;;5.00;100.00;103161.47;5096602;28;20032;-37
2022/01/17 02:04:57;;;;;;;30.42;15.93;;;;;;;5.05;100.00;103171.78;5096042;28;20416;-37
2022/01/17 02:07:23;;;;;;;26.67;13.63;;;;;;;4.92;100.00;103163.97;5096291;28;20039;-37
2022/01/17 02:09:49;;;;;;;31.48;14.15;;;;;;;4.97;100.00;103174.28;5097083;28;20035;-37
2022/01/17 02:12:20;;;;;;;30.07;14.13;;;;;;;4.91;100.00;103171.19;5096160;28;20187;-37
2022/01/17 02:14:45;;;;;;;25.40;12.15;;;;;;;4.87;100.00;103172.44;5096276;28;20522;-37
2022/01/17 02:17:11;;;;;;;29.20;12.87;;;;;;;4.80;100.00;103168.63;5096501;28;20032;-37
2022/01/17 02:19:44;;;;;;;23.10;12.70;;;;;;;4.81;100.00;103178.34;5096115;28;20110;-37
2022/01/17 02:22:10;;;;;;;28.58;12.85;;;;;;;4.76;100.00;103167.19;5096676;28;20056;-37
2022/01/17 02:24:35;;;;;;;24.40;11.83;;;;;;;4.73;100.00;103171.97;5096825;28;20429;-37
2022/01/17 02:27:00;;;;;;;21.23;12.20;;;;;;;4.70;100.00;103158.84;5095850;28;20323;-37
2022/01/17 02:29:26;;;;;;;26.00;11.50;;;;;;;4.68;100.00;103163.47;5095918;28;20051;-37
2022/01/17 02:31:51;;;;;;;23.55;12.07;;;;;;;4.66;100.00;103168.97;5096352;28;20031;-37
2022/01/17 02:34:17;;;;;;;20.43;12.10;;;;;;;4.39;100.00;103134.72;5095879;28;20426;-37
2022/01/17 02:36:43;;;;;;;23.83;10.80;;;;;;;4.59;100.00;103178.56;5096322;28;20024;-37
2022/01/17 02:39:08;;;;;;;25.30;10.50;;;;;;;4.57;100.00;103172.47;5095969;28;20089;-37
2022/01/17 02:41:35;;;;;;;24.57;10.87;;;;;;;4.52;100.00;103172.03;5095663;28;20107;-37
2022/01/17 02:44:02;;;;;;;23.20;11.20;;;;;;;4.39;100.00;103149.00;5095886;28;20081;-37
2022/01/17 02:46:27;;;;;;;19.58;11.27;;;;;;;4.45;100.00;103163.69;5095745;28;20447;-36
2022/01/17 02:48:58;;;;;;;22.00;11.27;;;;;;;4.42;100.00;103174.66;5096658;28;20040;-37
2022/01/17 02:51:24;;;;;;;18.83;10.50;;;;;;;4.39;100.00;103175.78;5095957;28;20738;-37
2022/01/17 02:53:50;;;;;;;23.50;11.77;;;;;;;4.36;100.00;103177.88;5095288;28;20024;-36
2022/01/17 02:56:16;;;;;;;28.65;11.23;;;;;;;4.36;100.00;103180.56;5095884;28;20099;-37
2022/01/17 02:58:42;;;;;;;21.67;10.52;;;;;;;4.31;100.00;103182.78;5095131;28;20421;-37
2022/01/17 03:01:11;;;;;;;20.73;11.38;;;;;;;4.30;100.00;103173.91;5095195;28;20071;-36
2022/01/17 03:03:37;;;;;;;23.23;10.20;;;;;;;4.29;100.00;103177.53;5096076;28;20039;-36
2022/01/17 03:06:02;;;;;;;22.65;11.48;;;;;;;4.25;100.00;103169.94;5094939;28;20031;-37
2022/01/17 03:08:31;;;;;;;22.03;11.43;;;;;;;4.25;100.00;103168.09;5094963;28;20031;-37
2022/01/17 03:11:01;;;;;;;20.95;10.27;;;;;;;4.22;100.00;103171.03;5094674;28;20484;-36
2022/01/17 03:13:34;;;;;;;20.35;10.75;;;;;;;4.20;100.00;103169.44;5093558;28;20338;-37
2022/01/17 03:16:04;;;;;;;18.75;10.18;;;;;;;4.19;100.00;103165.94;5095035;28;20492;-36
2022/01/17 03:18:32;;;;;;;19.23;10.20;;;;;;;4.10;100.00;103139.97;5095578;28;20024;-36
2022/01/17 03:20:59;;;;;;;18.15;10.20;;;;;;;4.13;100.00;103153.94;5095123;28;20059;-37
2022/01/17 03:23:24;;;;;;;23.02;10.55;;;;;;;4.11;100.00;103158.56;5094716;28;20476;-37
2022/01/17 03:25:50;;;;;;;23.27;10.17;;;;;;;4.12;100.00;103160.25;5094917;28;20032;-37
2022/01/17 03:28:15;;;;;;;19.23;9.17;;;;;;;4.12;100.00;103160.25;5095117;28;20039;-37
2022/01/17 03:30:42;;;;;;;19.45;9.95;;;;;;;4.10;100.00;103164.91;5094561;28;20364;-37
2022/01/17 03:33:11;;;;;;;19.98;9.57;;;;;;;4.03;100.00;103163.72;5094989;28;20153;-37
2022/01/17 03:35:38;;;;;;;21.55;9.88;;;;;;;4.09;100.00;103175.75;5095279;28;20161;-36
2022/01/17 03:38:05;;;;;;;28.95;10.63;;;;;;;4.09;100.00;103173.06;5094560;28;20035;-37
2022/01/17 03:40:30;;;;;;;16.35;9.32;;;;;;;4.04;100.00;103172.59;5094555;28;20035;-36
2022/01/17 03:42:56;;;;;;;23.10;10.60;;;;;;;4.05;100.00;103174.31;5094575;28;20028;-37
2022/01/17 03:45:21;;;;;;;14.80;8.90;;;;;;;3.96;100.00;103154.53;5095075;28;20032;-37
2022/01/17 03:47:50;;;;;;;22.13;8.30;;;;;;;4.01;100.00;103181.75;5094377;28;20030;-37
2022/01/17 03:50:18;;;;;;;21.50;9.90;;;;;;;3.95;100.00;103173.38;5094712;28;20028;-37
2022/01/17 03:52:44;;;;;;;18.67;8.38;;;;;;;3.94;100.00;103174.38;5094661;28;20027;-37
2022/01/17 03:55:12;;;;;;;21.88;10.07;;;;;;;3.86;100.00;103165.19;5094032;28;20434;-36
2022/01/17 03:57:37;;;;;;;21.25;8.73;;;;;;;3.92;100.00;103168.31;5094686;28;20396;-36
2022/01/17 04:00:07;;;;;;;17.03;7.43;;;;;;;3.88;100.00;103170.41;5094687;28;20024;-36
2022/01/17 04:02:32;;;;;;;18.05;8.57;;;;;;;3.75;100.00;103162.53;5094121;28;20377;-36
2022/01/17 04:04:58;;;;;;;19.13;8.37;;;;;;;3.85;100.00;103182.19;5094731;28;20054;-37
2022/01/17 04:07:23;;;;;;;20.83;8.33;;;;;;;3.83;100.00;103181.50;5092735;28;20266;-37
2022/01/17 04:09:48;;;;;;;19.63;7.77;;;;;;;3.84;100.00;103180.50;5094556;28;20037;-36
2022/01/17 04:12:14;;;;;;;15.73;7.30;;;;;;;3.85;100.00;103181.34;5094614;28;20028;-37
2022/01/17 04:14:39;;;;;;;15.23;7.13;;;;;;;3.83;100.00;103175.28;5094477;28;20157;-37
2022/01/17 04:17:06;;;;;;;18.17;7.43;;;;;;;3.85;100.00;103184.03;5094328;28;20036;-36
2022/01/17 04:19:32;;;;;;;18.30;7.78;;;;;;;3.80;100.00;103171.03;5093835;28;20036;-36
2022/01/17 04:21:58;;;;;;;19.88;7.57;;;;;;;3.87;100.00;103184.75;5094048;28;20131;-36
2022/01/17 04:24:23;;;;;;;14.85;6.97;;;;;;;3.86;100.00;103185.75;5093440;28;20040;-36
2022/01/17 04:26:49;;;;;;;17.90;6.40;;;;;;;3.72;100.00;103168.19;5093724;28;20027;-37
2022/01/17 04:29:14;;;;;;;20.90;7.13;;;;;;;3.78;100.00;103178.34;5094061;28;20032;-37
2022/01/17 04:31:40;;;;;;;22.17;6.97;;;;;;;3.83;100.00;103194.03;5094435;28;20084;-37
2022/01/17 04:34:05;;;;;;;16.35;5.88;;;;;;;3.72;100.00;103173.53;5094438;28;20028;-37
2022/01/17 04:36:31;;;;;;;14.00;6.53;;;;;;;3.77;100.00;103187.38;5093449;28;20032;-36
2022/01/17 04:38:56;;;;;;;17.33;6.22;;;;;;;3.78;100.00;103190.88;5093928;28;20043;-37
2022/01/17 04:41:28;;;;;;;16.73;5.93;;;;;;;3.79;100.00;103190.75;5093395;28;20062;-36
2022/01/17 04:46:19;;;;;;;18.50;6.90;;;;;;;3.68;100.00;103176.59;5093638;28;20036;-36
2022/01/17 04:48:44;;;;;;;12.90;5.77;;;;;;;3.74;100.00;103186.78;5093733;28;20040;-36
2022/01/17 04:51:10;;;;;;;16.67;5.70;;;;;;;3.71;100.00;103182.53;5092766;28;20043;-37
2022/01/17 04:53:35;;;;;;;16.27;5.03;;;;;;;3.67;100.00;103183.78;5093196;28;20075;-35
2022/01/17 04:56:01;;;;;;;18.33;5.03;;;;;;;3.69;100.00;103200.53;5093423;28;20024;-35
2022/01/17 04:58:26;;;;;;;12.17;5.03;;;;;;;3.67;100.00;103202.50;5093452;28;20032;-36
2022/01/17 05:00:52;;;;;;;8.33;4.77;;;;;;;3.67;100.00;103210.53;5093605;28;20143;-35
2022/01/17 05:03:20;;;;;;;13.38;4.78;;;;;;;3.61;100.00;103197.63;5093566;28;20116;-35
2022/01/17 05:05:46;;;;;;;15.68;5.40;;;;;;;3.56;100.00;103192.69;5093318;28;20036;-35
2022/01/17 05:08:13;;;;;;;15.90;5.55;;;;;;;3.62;100.00;103218.09;5093298;28;20070;-36
2022/01/17 05:10:38;;;;;;;11.05;4.97;;;;;;;3.60;100.00;103226.22;5094065;28;20024;-36
2022/01/17 05:13:04;;;;;;;13.53;5.27;;;;;;;3.60;100.00;103233.41;5093179;28;20380;-36
2022/01/17 05:15:42;;;;;;;16.90;4.43;;;;;;;3.59;100.00;103218.34;5093999;28;20107;-36
2022/01/17 05:20:44;;;;;;;15.13;5.43;;;;;;;3.57;100.00;103217.63;5092869;28;20360;-36
2022/01/17 05:23:10;;;;;;;13.43;5.20;;;;;;;3.57;100.00;103229.16;5093679;28;20127;-36
2022/01/17 05:25:35;;;;;;;12.70;4.60;;;;;;;3.57;100.00;103215.78;5093338;28;20056;-36
2022/01/17 05:28:01;;;;;;;18.17;4.93;;;;;;;3.60;100.00;103223.53;5092709;28;20032;-40
2022/01/17 05:30:27;;;;;;;18.53;4.57;;;;;;;3.55;100.00;103217.72;5093810;28;20038;-36
2022/01/17 05:32:53;;;;;;;14.50;5.03;;;;;;;3.61;100.00;103216.38;5092660;28;20475;-36
2022/01/17 05:35:19;;;;;;;14.32;5.10;;;;;;;3.60;100.00;103226.22;5092742;28;20036;-36
2022/01/17 05:37:46;;;;;;;15.27;5.32;;;;;;;3.53;100.00;103216.16;5093169;28;20089;-36
2022/01/17 05:40:12;;;;;;;;;;;;;;;3.67;100.00;103242.63;5093316;28;20116;-36
2022/01/17 05:42:38;;;;;;;16.40;5.43;;;;;;;3.60;100.00;103239.59;5093115;28;20251;-36
2022/01/17 05:45:06;;;;;;;11.88;5.00;;;;;;;3.59;100.00;103247.75;5092779;28;20028;-36
2022/01/17 05:47:31;;;;;;;11.90;5.18;;;;;;;3.57;100.00;103234.53;5092759;28;20024;-36
2022/01/17 05:49:59;;;;;;;16.15;6.20;;;;;;;3.49;100.00;103220.06;5091816;28;20050;-36
2022/01/17 05:52:24;;;;;;;15.38;5.25;;;;;;;3.56;100.00;103234.63;5092721;28;20034;-36
2022/01/17 05:54:49;;;;;;;17.65;6.03;;;;;;;3.46;100.00;103220.31;5092843;28;20133;-36
2022/01/17 05:57:16;;;;;;;14.13;5.87;;;;;;;3.51;100.00;103235.00;5092383;28;20020;-36
2022/01/17 05:59:43;;;;;;;11.68;6.32;;;;;;;3.53;100.00;103234.91;5093492;28;20437;-36
2022/01/17 06:02:08;;;;;;;14.13;7.30;;;;;;;3.56;100.00;103238.19;5094544;28;20122;-36
2022/01/17 06:04:34;;;;;;;16.23;7.40;;;;;;;3.57;100.00;103237.19;5096649;28;20024;-36
2022/01/17 06:06:59;;;;;;;17.25;7.53;;;;;;;3.61;100.00;103235.09;5096481;28;20039;-36
2022/01/17 06:09:24;;;;;;;17.67;7.80;;;;;;;3.59;100.00;103226.34;5096425;28;20027;-36
2022/01/17 06:11:50;;;;;;;18.20;8.03;;;;;;;3.62;100.00;103236.81;5096166;28;20024;-36
2022/01/17 06:14:17;;;;;;;15.80;7.90;;;;;;;3.64;100.00;103244.72;5096592;28;20056;-36
2022/01/17 06:16:44;;;;;;;23.15;9.73;;;;;;;3.62;100.00;103236.81;5096855;28;20032;-36
2022/01/17 06:19:11;;;;;;;19.10;8.07;;;;;;;3.61;100.00;103235.97;5096331;28;20085;-36
2022/01/17 06:21:36;;;;;;;19.88;9.23;;;;;;;3.55;100.00;103208.84;5096036;28;20192;-36
2022/01/17 06:24:04;;;;;;;17.47;8.53;;;;;;;3.62;100.00;103226.13;5096987;28;20461;-36
2022/01/17 06:26:30;;;;;;;19.42;9.77;;;;;;;3.62;100.00;103242.16;5096051;28;20269;-37
2022/01/17 06:28:55;;;;;;;24.00;9.48;;;;;;;3.63;100.00;103245.69;5096121;28;20035;-37
2022/01/17 06:31:20;;;;;;;18.07;9.87;;;;;;;3.56;100.00;103242.66;5096594;28;20024;-37
2022/01/17 06:33:46;;;;;;;22.17;9.23;;;;;;;3.60;100.00;103262.84;5096362;28;20039;-36
2022/01/17 06:36:11;;;;;;;17.67;9.13;;;;;;;3.58;100.00;103260.28;5095891;28;20472;-36
2022/01/17 06:38:36;;;;;;;20.37;8.53;;;;;;;3.57;100.00;103255.94;5095904;28;20047;-37
2022/01/17 06:41:02;;;;;;;17.80;8.60;;;;;;;3.58;100.00;103251.41;5095875;28;20063;-36
2022/01/17 06:43:27;;;;;;;18.23;9.37;;;;;;;3.56;100.00;103261.38;5094025;28;20131;-36
2022/01/17 06:45:53;;;;;;;18.17;8.87;;;;;;;3.55;100.00;103260.53;5096130;28;20031;-37
2022/01/17 06:48:19;;;;;;;22.20;9.13;;;;;;;3.54;100.00;103250.81;5096381;28;20298;-37
2022/01/17 06:50:44;;;;;;;16.63;8.90;;;;;;;3.39;100.00;103229.81;5095653;28;20028;-37
2022/01/17 06:53:10;;;;;;;23.87;10.00;;;;;;;3.52;100.00;103251.94;5095563;28;20085;-37
2022/01/17 06:55:35;;;;;;;19.30;9.40;;;;;;;3.55;100.00;103265.88;5095707;28;20034;-36
2022/01/17 06:58:00;;;;;;;19.60;9.03;;;;;;;3.55;100.00;103273.91;5095094;28;20077;-36
2022/01/17 07:00:26;;;;;;;14.13;9.20;;;;;;;3.53;100.00;103281.22;5096167;28;20024;-37
2022/01/17 07:02:52;;;;;;;16.92;9.32;;;;;;;3.43;100.00;103261.56;5095433;28;20373;-36
2022/01/17 07:05:17;;;;;;;18.15;8.77;;;;;;;3.50;100.00;103278.78;5096126;28;20036;-36
2022/01/17 07:07:43;;;;;;;21.57;9.40;;;;;;;3.53;100.00;103280.38;5095381;28;20024;-37
2022/01/17 07:10:09;;;;;;;18.52;8.75;;;;;;;3.51;100.00;103301.88;5095428;28;20067;-37
2022/01/17 07:12:37;;;;;;;17.52;9.63;;;;;;;3.51;100.00;103287.66;5094621;28;20027;-37
2022/01/17 07:15:04;;;;;;;24.08;10.52;;;;;;;3.50;100.00;103280.63;5094996;28;20027;-36
2022/01/17 07:17:30;;;;;;;22.08;10.65;;;;;;;3.49;100.00;103269.06;5094785;28;20031;-37
2022/01/17 07:19:55;;;;;;;23.20;11.37;;;;;;;3.45;100.00;103256.91;5095749;28;20032;-37
2022/01/17 07:22:20;;;;;;;20.17;10.70;;;;;;;3.49;100.00;103262.88;5095503;28;20056;-37
2022/01/17 07:24:47;;;;;;;19.03;9.87;;;;;;;3.49;100.00;103252.16;5095007;28;20031;-37
2022/01/17 07:27:13;;;;;;;24.85;12.38;;;;;;;3.46;100.00;103252.41;5094890;28;20020;-37
2022/01/17 07:29:40;;;;;;;17.70;10.82;;;;;;;3.44;100.00;103247.19;5095459;28;20028;-36
2022/01/17 07:32:06;;;;;;;24.58;12.18;;;;;;;3.50;100.00;103269.91;5094706;28;20028;-38
2022/01/17 07:34:32;;;;;;;23.13;12.75;;;;;;;3.49;100.00;103273.56;5094854;28;20077;-37
2022/01/17 07:36:59;;;;;;;21.23;11.55;;;;;;;3.50;100.00;103277.94;5095423;28;20428;-37
2022/01/17 07:39:25;;;;;;;22.53;11.90;;;;;;;3.48;100.00;103290.59;5094316;28;20468;-36
2022/01/17 07:41:50;;;;;;;23.17;11.97;;;;;;;3.49;100.00;103297.66;5095502;28;20027;-37
2022/01/17 07:44:20;;;;;;;19.73;11.45;;;;;;;3.44;100.00;103299.84;5095121;28;20353;-36
2022/01/17 07:46:58;;;;;;;23.50;12.75;;;;;;;3.48;100.00;103304.81;5094684;28;20130;-37
2022/01/17 07:49:25;;;;;;;22.92;12.00;;;;;;;3.36;100.00;103287.09;5095020;28;20108;-36
2022/01/17 07:52:03;;;;;;;21.50;13.40;;;;;;;3.44;100.00;103305.19;5094272;28;20036;-36
2022/01/17 07:54:31;;;;;;;21.55;13.52;;;;;;;3.47;100.00;103313.84;5095061;28;20032;-36
2022/01/17 07:56:58;;;;;;;22.80;13.15;;;;;;;3.48;100.00;103314.69;5094942;28;20390;-36
2022/01/17 07:59:23;;;;;;;21.23;12.45;;;;;;;3.49;100.00;103313.69;5094484;28;20024;-36
2022/01/17 08:01:49;;;;;;;22.03;13.17;;;;;;;3.49;100.00;103327.94;5094062;28;20036;-36
2022/01/17 08:04:14;;;;;;;23.42;14.02;;;;;;;3.50;100.00;103323.41;5094580;28;20071;-36
2022/01/17 08:06:40;;;;;;;22.83;13.57;;;;;;;3.51;100.00;103319.75;5094031;28;20388;-36
2022/01/17 08:09:16;;;;;;;28.10;14.55;;;;;;;3.49;100.00;103329.75;5093946;28;20535;-36
2022/01/17 08:11:41;;;;;;;24.05;13.13;;;;;;;3.51;100.00;103331.31;5094336;28;20100;-37
2022/01/17 08:14:07;;;;;;;22.43;13.13;;;;;;;3.52;100.00;103333.03;5094426;28;20047;-36
2022/01/17 08:16:32;;;;;;;25.13;14.33;;;;;;;3.52;100.00;103329.53;5093631;28;20036;-37
2022/01/17 08:18:58;;;;;;;24.57;13.77;;;;;;;3.57;100.00;103336.19;5093879;28;20036;-37
2022/01/17 08:21:23;;;;;;;22.60;14.57;;;;;;;3.56;100.00;103330.94;5093923;28;20051;-37
2022/01/17 08:23:49;;;;;;;23.70;14.60;;;;;;;3.57;100.00;103333.53;5093991;28;20085;-36
2022/01/17 08:26:15;;;;;;;25.75;14.90;;;;;;;3.67;100.00;103338.97;5094124;28;20099;-37
2022/01/17 08:28:41;;;;;;;24.37;15.13;;;;;;;3.73;100.00;103340.28;5094059;28;20520;-37
2022/01/17 08:31:07;;;;;;;27.25;17.25;;;;;;;3.79;100.00;103343.31;5093928;28;20039;-37
2022/01/17 08:33:32;;;;;;;27.48;16.73;;;;;;;3.83;100.00;103347.44;5093827;28;20028;-37
2022/01/17 08:35:57;;;;;;;26.77;15.67;;;;;;;3.88;100.00;103347.06;5093688;28;20483;-37
2022/01/17 08:38:24;;;;;;;24.50;15.93;;;;;;;3.94;100.00;103340.34;5093496;28;20020;-38
2022/01/17 08:40:50;;;;;;;28.27;18.75;;;;;;;3.88;100.00;103329.19;5094042;28;20369;-37
2022/01/17 08:43:15;;;;;;;29.23;15.93;;;;;;;4.03;100.00;103335.09;5093227;28;20058;-37
2022/01/17 08:45:41;;;;;;;32.70;17.63;;;;;;;4.07;100.00;103333.03;5093815;28;20482;-37
2022/01/17 08:48:06;;;;;;;33.30;17.63;;;;;;;4.10;100.00;103324.75;5093166;28;20491;-37
2022/01/17 08:50:31;;;;;;;38.83;18.47;;;;;;;4.14;100.00;103318.97;5094238;28;20024;-37
2022/01/17 08:52:57;;;;;;;35.13;17.40;;;;;;;4.20;100.00;103323.00;5093400;28;20380;-37
2022/01/17 08:55:22;;;;;;;35.50;17.17;;;;;;;4.26;100.00;103338.53;5093891;28;20027;-37
2022/01/17 08:57:49;;;;;;;37.03;17.13;;;;;;;4.26;100.00;103333.19;5093096;28;20532;-37
2022/01/17 09:00:18;;;;;;;29.52;16.55;;;;;;;4.20;100.00;103317.63;5093293;28;20103;-37
2022/01/17 09:02:44;;;;;;;31.17;15.73;;;;;;;4.41;100.00;103335.56;5093311;28;20028;-37
2022/01/17 09:05:09;;;;;;;35.93;16.63;;;;;;;4.45;100.00;103342.34;5093374;28;20224;-37
2022/01/17 09:07:35;;;;;;;29.25;15.50;;;;;;;4.48;100.00;103347.44;5093520;28;20157;-37
2022/01/17 09:10:00;;;;;;;29.83;15.63;;;;;;;4.44;100.00;103340.63;5093589;28;20028;-37
2022/01/17 09:12:26;;;;;;;29.13;15.17;;;;;;;4.46;100.00;103339.53;5093230;28;20030;-37
2022/01/17 09:14:51;;;;;;;34.67;16.10;;;;;;;4.55;100.00;103354.00;5093788;28;20250;-37
2022/01/17 09:17:16;;;;;;;27.07;14.50;;;;;;;4.49;100.00;103347.31;5093239;28;20024;-35
2022/01/17 09:19:43;;;;;;;31.80;16.07;;;;;;;4.64;100.00;103380.00;5093814;28;20031;-35
2022/01/17 09:22:09;;;;;;;28.30;14.75;;;;;;;4.63;100.00;103379.13;5093432;28;20478;-36
2022/01/17 09:24:36;;;;;;;28.20;15.52;;;;;;;4.70;100.00;103379.50;5093646;28;20143;-36
2022/01/17 09:27:03;;;;;;;28.75;14.23;;;;;;;4.75;100.00;103381.78;5093123;28;20387;-37
2022/01/17 09:29:29;;;;;;;27.92;14.02;;;;;;;4.77;100.00;103383.34;5093018;28;20051;-36
2022/01/17 09:31:54;;;;;;;38.00;15.32;;;;;;;4.79;100.00;103373.34;5093419;28;20452;-36
2022/01/17 09:34:20;;;;;;;33.00;13.73;;;;;;;4.82;100.00;103377.56;5093051;28;20028;-36
2022/01/17 09:36:45;;;;;;;23.77;13.57;;;;;;;4.62;100.00;103339.91;5094041;28;20141;-36
2022/01/17 09:39:10;;;;;;;34.20;14.20;;;;;;;4.85;100.00;103375.50;5097411;28;20333;-36
2022/01/17 09:41:36;;;;;;;32.20;13.23;;;;;;;4.85;100.00;103370.13;5096720;28;20027;-36
2022/01/17 09:44:05;;;;;;;30.42;12.77;;;;;;;4.86;100.00;103374.50;5097428;28;20056;-36
2022/01/17 09:46:35;;;;;;;31.55;12.18;;;;;;;4.89;100.00;103395.69;5096710;28;20122;-37
2022/01/17 09:49:13;;;;;;;25.25;12.10;;;;;;;4.91;100.00;103399.09;5097538;28;20028;-36
2022/01/17 09:54:24;;;;;;;22.33;11.55;;;;;;;4.87;100.00;103397.66;5096462;28;20036;-36
2022/01/17 09:56:51;;;;;;;24.10;12.23;;;;;;;4.82;100.00;103390.97;5096327;28;20529;-37
2022/01/17 09:59:20;;;;;;;26.45;11.77;;;;;;;4.99;100.00;103419.06;5096605;28;20082;-37
2022/01/17 10:01:45;;;;;;;27.90;10.27;;;;;;;5.01;100.00;103433.16;5096508;28;20028;-37
2022/01/17 10:04:11;;;;;;;23.60;10.98;;;;;;;5.02;100.00;103434.84;5096826;28;20116;-37
2022/01/17 10:06:39;;;;;;;26.27;10.73;;;;;;;5.00;100.00;103407.34;5096758;28;20357;-37
2022/01/17 10:09:22;;;;;;;28.35;9.43;;;;;;;5.07;100.00;103421.91;5096677;28;20258;-37
2022/01/17 10:12:01;;;;;;;33.10;11.10;;;;;;;5.10;100.00;103418.97;5096677;28;20059;-37
2022/01/17 10:14:29;;;;;;;23.27;9.77;;;;;;;5.10;100.00;103417.13;5096919;28;20028;-36
2022/01/17 10:16:54;;;;;;;24.02;9.25;;;;;;;5.10;100.00;103418.97;5096517;28;20028;-36
2022/01/17 10:19:25;;;;;;;27.37;9.07;;;;;;;5.07;100.00;103416.53;5096316;28;20032;-37
2022/01/17 10:21:55;;;;;;;27.58;9.25;;;;;;;5.16;100.00;103424.66;5096382;28;20051;-36
2022/01/17 10:35:14;;;;;;;20.67;6.90;;;;;;;5.30;100.00;103433.34;5096283;28;20047;-37
2022/01/17 10:37:40;;;;;;;29.52;7.80;;;;;;;5.31;100.00;103435.88;5096268;28;20118;-37
2022/01/17 10:40:14;;;;;;;28.75;7.65;;;;;;;5.21;100.00;103415.34;5095508;28;20176;-37
2022/01/17 10:42:45;;;;;;;29.33;7.95;;;;;;;5.39;100.00;103440.59;5095400;28;20020;-37
2022/01/17 10:45:21;;;;;;;21.52;7.28;;;;;;;5.43;100.00;103450.09;5096322;28;20031;-37
2022/01/17 10:47:53;;;;;;;25.58;7.43;;;;;;;5.45;100.00;103444.56;5095568;28;20449;-36
2022/01/17 10:50:21;;;;;;;22.70;6.72;;;;;;;5.47;100.00;103438.09;5095620;28;20364;-36
2022/01/17 10:52:49;;;;;;;21.63;6.05;;;;;;;5.49;100.00;103437.97;5095540;28;20028;-36
2022/01/17 10:55:17;;;;;;;15.05;6.05;;;;;;;5.49;100.00;103429.91;5096374;28;20032;-36
2022/01/17 10:57:45;;;;;;;23.17;6.50;;;;;;;5.46;100.00;103435.53;5095762;28;20032;-36
2022/01/17 11:00:14;;;;;;;23.13;5.97;;;;;;;5.56;100.00;103447.16;5095322;28;20103;-36
2022/01/17 11:02:43;;;;;;;26.98;6.88;;;;;;;5.61;100.00;103455.66;5093618;28;20040;-36
2022/01/17 11:05:11;;;;;;;16.70;5.38;;;;;;;5.65;100.00;103462.47;5094455;28;20059;-36
2022/01/17 11:07:45;;;;;;;26.98;6.47;;;;;;;5.69;100.00;103464.75;5095222;28;20032;-36
2022/01/17 11:10:15;;;;;;;20.70;4.80;;;;;;;5.72;100.00;103474.38;5095052;28;20507;-36
2022/01/17 11:12:41;;;;;;;21.40;5.75;;;;;;;5.76;100.00;103474.94;5094846;28;20024;-36
2022/01/17 11:15:06;;;;;;;23.90;6.83;;;;;;;5.78;100.00;103483.72;5095724;28;20032;-36
2022/01/17 11:17:37;;;;;;;26.27;6.47;;;;;;;5.80;100.00;103477.22;5095142;28;20038;-36
2022/01/17 11:20:07;;;;;;;22.65;5.93;;;;;;;5.82;100.00;103480.63;5095853;28;20335;-36
2022/01/17 11:22:41;;;;;;;22.65;5.40;;;;;;;5.76;100.00;103461.50;5095853;28;20084;-36
2022/01/17 11:25:09;;;;;;;25.35;5.97;;;;;;;5.87;100.00;103462.28;5095223;28;20028;-36
2022/01/17 11:27:35;;;;;;;24.58;6.32;;;;;;;5.89;100.00;103462.97;5095082;28;20058;-36
2022/01/17 11:30:01;;;;;;;25.27;6.35;;;;;;;5.93;100.00;103456.38;5093856;28;20028;-36
2022/01/17 11:32:27;;;;;;;28.50;6.05;;;;;;;5.87;100.00;103439.94;5094840;28;20039;-36
2022/01/17 11:34:54;;;;;;;20.00;5.43;;;;;;;5.99;100.00;103446.09;5094856;28;20496;-36
2022/01/17 11:37:20;;;;;;;17.92;5.10;;;;;;;5.94;100.00;103425.84;5094936;28;20384;-36
2022/01/17 11:39:51;;;;;;;23.30;5.90;;;;;;;6.02;100.00;103430.56;5094897;28;20513;-36
2022/01/17 11:42:35;;;;;;;25.02;6.05;;;;;;;6.13;100.00;103445.69;5094492;28;20036;-36